createdAt,value
2017-10-07T00:00:49.397Z,10.67
2017-10-07T00:01:58.234Z,10.66
2017-10-07T00:03:07.062Z,10.6
2017-10-07T00:04:15.897Z,10.66
2017-10-07T00:05:24.744Z,10.7
2017-10-07T00:06:33.558Z,10.67
2017-10-07T00:07:42.388Z,10.61
2017-10-07T00:08:51.215Z,10.71
2017-10-07T00:10:00.043Z,10.63
2017-10-07T00:11:08.873Z,10.68
2017-10-07T00:12:17.709Z,10.7
2017-10-07T00:13:26.536Z,10.76
2017-10-07T00:14:35.365Z,10.76
2017-10-07T00:15:44.199Z,10.79
2017-10-07T00:16:53.359Z,10.76
2017-10-07T00:18:02.193Z,10.76
2017-10-07T00:19:11.340Z,10.76
2017-10-07T00:20:20.173Z,10.82
2017-10-07T00:21:29.004Z,10.73
2017-10-07T00:22:37.840Z,10.74
2017-10-07T00:23:46.672Z,10.85
2017-10-07T00:24:55.505Z,10.86
2017-10-07T00:26:04.337Z,10.86
2017-10-07T00:27:13.166Z,10.86
2017-10-07T00:28:22.000Z,10.92
2017-10-07T00:29:30.833Z,10.85
2017-10-07T00:30:39.667Z,10.76
2017-10-07T00:31:48.503Z,10.81
2017-10-07T00:32:57.337Z,10.74
2017-10-07T00:34:06.499Z,10.79
2017-10-07T00:35:15.329Z,10.78
2017-10-07T00:36:24.170Z,10.82
2017-10-07T00:37:32.996Z,10.76
2017-10-07T00:38:41.828Z,10.79
2017-10-07T00:39:50.986Z,10.85
2017-10-07T00:40:59.820Z,10.88
2017-10-07T00:42:08.646Z,10.92
2017-10-07T00:43:17.479Z,10.86
2017-10-07T00:44:26.309Z,10.82
2017-10-07T00:45:35.139Z,10.88
2017-10-07T00:46:43.976Z,10.82
2017-10-07T00:47:52.803Z,10.88
2017-10-07T00:49:01.636Z,10.89
2017-10-07T00:50:10.465Z,10.76
2017-10-07T00:51:19.301Z,10.78
2017-10-07T00:52:28.132Z,10.85
2017-10-07T00:53:37.292Z,10.85
2017-10-07T00:54:46.125Z,10.84
2017-10-07T00:55:54.952Z,10.88
2017-10-07T00:57:03.786Z,10.85
2017-10-07T00:58:12.614Z,10.89
2017-10-07T00:59:21.443Z,10.86
2017-10-07T01:00:30.276Z,10.86
2017-10-07T01:01:39.108Z,10.86
2017-10-07T01:02:47.940Z,10.96
2017-10-07T01:03:56.765Z,10.94
2017-10-07T01:05:05.598Z,10.97
2017-10-07T01:06:14.428Z,10.97
2017-10-07T01:07:23.258Z,11
2017-10-07T01:08:32.089Z,11.03
2017-10-07T01:09:41.243Z,11.02
2017-10-07T01:10:50.074Z,10.96
2017-10-07T01:11:58.907Z,11.03
2017-10-07T01:13:07.737Z,11.07
2017-10-07T01:14:16.565Z,11.02
2017-10-07T01:15:25.403Z,10.97
2017-10-07T01:16:34.231Z,10.96
2017-10-07T01:17:43.389Z,10.96
2017-10-07T01:18:52.220Z,11.03
2017-10-07T01:20:01.053Z,11.14
2017-10-07T01:21:09.884Z,11.1
2017-10-07T01:22:18.715Z,11.11
2017-10-07T01:23:27.548Z,11.15
2017-10-07T01:24:36.374Z,11.09
2017-10-07T01:25:45.207Z,11.07
2017-10-07T01:26:54.036Z,11.04
2017-10-07T01:28:02.869Z,11.06
2017-10-07T01:29:11.722Z,11.11
2017-10-07T01:30:20.551Z,11.07
2017-10-07T01:31:29.379Z,11.15
2017-10-07T01:32:38.216Z,11.11
2017-10-07T01:33:47.043Z,11.07
2017-10-07T01:34:55.875Z,11.15
2017-10-07T01:36:04.717Z,11.18
2017-10-07T01:37:13.561Z,11.1
2017-10-07T01:38:22.378Z,11.15
2017-10-07T01:39:31.215Z,11.09
2017-10-07T01:40:40.050Z,11.21
2017-10-07T01:41:48.879Z,11.27
2017-10-07T01:42:57.709Z,11.25
2017-10-07T01:44:06.537Z,11.24
2017-10-07T01:45:15.372Z,11.22
2017-10-07T01:46:24.204Z,11.28
2017-10-07T01:47:33.036Z,11.19
2017-10-07T01:48:41.870Z,11.21
2017-10-07T01:49:50.701Z,11.25
2017-10-07T01:50:59.529Z,11.22
2017-10-07T01:52:08.362Z,11.24
2017-10-07T01:53:17.202Z,11.21
2017-10-07T01:54:26.351Z,11.22
2017-10-07T01:55:35.180Z,11.25
2017-10-07T01:56:44.029Z,11.24
2017-10-07T01:57:52.843Z,11.22
2017-10-07T01:59:01.677Z,11.21
2017-10-07T02:00:10.508Z,11.19
2017-10-07T02:01:19.339Z,11.19
2017-10-07T02:02:28.166Z,11.18
2017-10-07T02:03:36.999Z,11.24
2017-10-07T02:04:45.832Z,11.18
2017-10-07T02:05:54.665Z,11.24
2017-10-07T02:07:03.499Z,11.27
2017-10-07T02:08:12.330Z,11.24
2017-10-07T02:09:21.159Z,11.24
2017-10-07T02:10:29.995Z,11.25
2017-10-07T02:11:38.827Z,11.25
2017-10-07T02:12:47.657Z,11.24
2017-10-07T02:13:56.487Z,11.21
2017-10-07T02:15:05.647Z,11.25
2017-10-07T02:16:14.475Z,11.22
2017-10-07T02:17:23.302Z,11.24
2017-10-07T02:18:32.136Z,11.32
2017-10-07T02:19:40.964Z,11.33
2017-10-07T02:20:49.792Z,11.29
2017-10-07T02:21:58.623Z,11.32
2017-10-07T02:23:07.787Z,11.35
2017-10-07T02:24:16.614Z,11.28
2017-10-07T02:25:25.445Z,11.36
2017-10-07T02:26:34.274Z,11.36
2017-10-07T02:27:43.105Z,11.35
2017-10-07T02:28:51.944Z,11.37
2017-10-07T02:30:00.774Z,11.35
2017-10-07T02:31:10.260Z,11.36
2017-10-07T02:32:19.090Z,11.47
2017-10-07T02:33:27.919Z,11.37
2017-10-07T02:34:36.758Z,11.36
2017-10-07T02:35:45.919Z,11.46
2017-10-07T02:36:54.745Z,11.39
2017-10-07T02:38:03.574Z,11.42
2017-10-07T02:39:12.415Z,11.49
2017-10-07T02:40:21.236Z,11.42
2017-10-07T02:41:30.068Z,11.49
2017-10-07T02:42:38.903Z,11.43
2017-10-07T02:43:47.731Z,11.57
2017-10-07T02:44:56.560Z,11.58
2017-10-07T02:46:05.392Z,11.61
2017-10-07T02:47:14.219Z,11.52
2017-10-07T02:48:23.060Z,11.43
2017-10-07T02:49:31.890Z,11.46
2017-10-07T02:50:40.721Z,11.52
2017-10-07T02:51:49.546Z,11.55
2017-10-07T02:52:58.384Z,11.47
2017-10-07T02:54:07.219Z,11.54
2017-10-07T02:55:16.049Z,11.57
2017-10-07T02:56:24.882Z,11.57
2017-10-07T02:57:33.707Z,11.64
2017-10-07T02:58:42.540Z,11.62
2017-10-07T02:59:51.377Z,11.69
2017-10-07T03:01:00.208Z,11.62
2017-10-07T03:02:09.043Z,11.69
2017-10-07T03:03:17.872Z,11.7
2017-10-07T03:04:26.704Z,11.69
2017-10-07T03:05:35.541Z,11.72
2017-10-07T03:06:44.369Z,11.65
2017-10-07T03:07:53.204Z,11.61
2017-10-07T03:09:02.034Z,11.69
2017-10-07T03:10:10.864Z,11.69
2017-10-07T03:11:19.693Z,11.7
2017-10-07T03:12:28.527Z,11.64
2017-10-07T03:13:37.358Z,11.72
2017-10-07T03:14:46.186Z,11.72
2017-10-07T03:15:55.020Z,11.78
2017-10-07T03:17:03.849Z,11.73
2017-10-07T03:18:13.015Z,11.75
2017-10-07T03:19:21.850Z,11.75
2017-10-07T03:20:30.681Z,11.79
2017-10-07T03:21:39.510Z,11.85
2017-10-07T03:22:48.667Z,11.75
2017-10-07T03:23:57.498Z,11.78
2017-10-07T03:25:06.340Z,11.75
2017-10-07T03:26:15.170Z,11.83
2017-10-07T03:27:24.002Z,11.82
2017-10-07T03:28:32.830Z,11.8
2017-10-07T03:29:41.667Z,11.82
2017-10-07T03:30:50.506Z,11.78
2017-10-07T03:31:59.339Z,11.86
2017-10-07T03:33:08.168Z,11.79
2017-10-07T03:34:16.996Z,11.83
2017-10-07T03:35:25.829Z,11.82
2017-10-07T03:36:34.657Z,11.83
2017-10-07T03:37:43.493Z,11.86
2017-10-07T03:38:52.319Z,11.85
2017-10-07T03:40:01.153Z,11.88
2017-10-07T03:41:09.984Z,11.85
2017-10-07T03:42:18.813Z,11.91
2017-10-07T03:43:27.650Z,11.82
2017-10-07T03:44:36.479Z,11.82
2017-10-07T03:45:45.310Z,11.83
2017-10-07T03:46:54.141Z,11.82
2017-10-07T03:48:02.975Z,11.9
2017-10-07T03:49:11.810Z,11.86
2017-10-07T03:50:20.647Z,11.82
2017-10-07T03:51:29.481Z,11.85
2017-10-07T03:52:38.312Z,11.88
2017-10-07T03:53:47.145Z,11.85
2017-10-07T03:54:55.972Z,11.9
2017-10-07T03:56:04.798Z,11.85
2017-10-07T03:57:13.631Z,11.83
2017-10-07T03:58:22.467Z,11.86
2017-10-07T03:59:31.302Z,11.91
2017-10-07T04:00:40.134Z,11.86
2017-10-07T04:01:48.961Z,11.85
2017-10-07T04:02:57.790Z,11.91
2017-10-07T04:04:06.626Z,11.86
2017-10-07T04:05:15.456Z,11.91
2017-10-07T04:06:24.286Z,11.91
2017-10-07T04:07:33.118Z,11.98
2017-10-07T04:08:41.946Z,11.95
2017-10-07T04:09:50.774Z,11.95
2017-10-07T04:10:59.607Z,11.94
2017-10-07T04:12:08.443Z,11.9
2017-10-07T04:13:17.597Z,11.86
2017-10-07T04:14:26.753Z,11.88
2017-10-07T04:15:35.586Z,11.9
2017-10-07T04:16:44.418Z,11.91
2017-10-07T04:17:53.256Z,11.94
2017-10-07T04:19:02.088Z,11.94
2017-10-07T04:20:10.923Z,11.95
2017-10-07T04:21:19.748Z,11.94
2017-10-07T04:22:28.586Z,11.86
2017-10-07T04:23:37.413Z,11.86
2017-10-07T04:24:46.246Z,11.82
2017-10-07T04:25:55.078Z,11.9
2017-10-07T04:27:03.907Z,11.9
2017-10-07T04:28:12.739Z,11.86
2017-10-07T04:29:21.577Z,11.83
2017-10-07T04:30:30.404Z,11.85
2017-10-07T04:31:39.235Z,11.85
2017-10-07T04:32:48.064Z,11.76
2017-10-07T04:33:56.900Z,11.83
2017-10-07T04:35:05.726Z,11.78
2017-10-07T04:36:14.562Z,11.76
2017-10-07T04:37:23.389Z,11.78
2017-10-07T04:38:32.224Z,11.75
2017-10-07T04:39:41.058Z,11.69
2017-10-07T04:40:49.888Z,11.79
2017-10-07T04:41:58.720Z,11.78
2017-10-07T04:43:07.550Z,11.76
2017-10-07T04:44:16.382Z,11.83
2017-10-07T04:45:25.209Z,11.8
2017-10-07T04:46:34.042Z,11.73
2017-10-07T04:47:42.877Z,11.78
2017-10-07T04:48:51.704Z,11.72
2017-10-07T04:50:00.541Z,11.73
2017-10-07T04:51:09.372Z,11.72
2017-10-07T04:52:18.204Z,11.69
2017-10-07T04:53:27.036Z,11.69
2017-10-07T04:54:35.865Z,11.72
2017-10-07T04:55:44.700Z,11.67
2017-10-07T04:56:53.527Z,11.78
2017-10-07T04:58:02.361Z,11.69
2017-10-07T04:59:11.190Z,11.72
2017-10-07T05:00:20.020Z,11.73
2017-10-07T05:01:28.854Z,11.69
2017-10-07T05:02:37.688Z,11.69
2017-10-07T05:03:46.515Z,11.69
2017-10-07T05:04:55.351Z,11.69
2017-10-07T05:06:04.184Z,11.67
2017-10-07T05:07:13.017Z,11.73
2017-10-07T05:08:21.845Z,11.73
2017-10-07T05:09:30.677Z,11.82
2017-10-07T05:10:39.512Z,11.75
2017-10-07T05:11:48.344Z,11.76
2017-10-07T05:12:57.177Z,11.76
2017-10-07T05:14:06.326Z,11.9
2017-10-07T05:15:15.160Z,11.85
2017-10-07T05:16:23.993Z,11.82
2017-10-07T05:17:33.142Z,11.86
2017-10-07T05:18:41.973Z,11.8
2017-10-07T05:19:50.803Z,11.85
2017-10-07T05:20:59.636Z,11.83
2017-10-07T05:22:08.468Z,11.85
2017-10-07T05:23:17.301Z,11.91
2017-10-07T05:24:26.134Z,11.88
2017-10-07T05:25:34.962Z,11.88
2017-10-07T05:26:43.794Z,11.86
2017-10-07T05:27:52.629Z,11.82
2017-10-07T05:29:01.459Z,11.95
2017-10-07T05:30:10.296Z,11.88
2017-10-07T05:31:19.130Z,11.85
2017-10-07T05:32:27.958Z,11.88
2017-10-07T05:33:36.790Z,11.91
2017-10-07T05:34:45.626Z,11.9
2017-10-07T05:35:54.459Z,11.82
2017-10-07T05:37:03.294Z,11.86
2017-10-07T05:38:12.123Z,11.86
2017-10-07T05:39:20.951Z,11.95
2017-10-07T05:40:29.787Z,11.91
2017-10-07T05:41:38.620Z,11.95
2017-10-07T05:42:47.444Z,11.94
2017-10-07T05:43:56.280Z,11.95
2017-10-07T05:45:05.111Z,11.95
2017-10-07T05:46:13.941Z,11.94
2017-10-07T05:47:22.774Z,11.96
2017-10-07T05:48:31.609Z,11.94
2017-10-07T05:49:40.438Z,11.98
2017-10-07T05:50:49.274Z,11.91
2017-10-07T05:51:58.099Z,11.9
2017-10-07T05:53:06.934Z,11.86
2017-10-07T05:54:15.766Z,11.9
2017-10-07T05:55:24.598Z,11.86
2017-10-07T05:56:33.427Z,11.88
2017-10-07T05:57:42.258Z,11.8
2017-10-07T05:58:51.092Z,11.82
2017-10-07T05:59:59.929Z,11.78
2017-10-07T06:01:08.766Z,11.9
2017-10-07T06:02:17.604Z,11.8
2017-10-07T06:03:26.430Z,11.76
2017-10-07T06:04:35.259Z,11.78
2017-10-07T06:05:44.094Z,11.72
2017-10-07T06:06:52.928Z,11.78
2017-10-07T06:08:01.765Z,11.72
2017-10-07T06:09:10.593Z,11.79
2017-10-07T06:10:19.425Z,11.78
2017-10-07T06:11:28.257Z,11.76
2017-10-07T06:12:37.091Z,11.88
2017-10-07T06:13:45.920Z,11.82
2017-10-07T06:14:55.073Z,11.76
2017-10-07T06:16:03.908Z,11.78
2017-10-07T06:17:12.736Z,11.78
2017-10-07T06:18:21.567Z,11.78
2017-10-07T06:19:30.403Z,11.83
2017-10-07T06:20:39.236Z,11.83
2017-10-07T06:21:48.072Z,11.8
2017-10-07T06:22:56.901Z,11.76
2017-10-07T06:24:05.733Z,11.79
2017-10-07T06:25:14.564Z,11.86
2017-10-07T06:26:23.399Z,11.9
2017-10-07T06:27:32.227Z,11.86
2017-10-07T06:28:41.062Z,11.85
2017-10-07T06:29:49.901Z,11.94
2017-10-07T06:30:58.732Z,11.88
2017-10-07T06:32:07.565Z,11.85
2017-10-07T06:33:16.396Z,11.9
2017-10-07T06:34:25.227Z,11.9
2017-10-07T06:35:34.060Z,11.83
2017-10-07T06:36:42.896Z,11.8
2017-10-07T06:37:51.728Z,11.85
2017-10-07T06:39:00.610Z,11.75
2017-10-07T06:40:09.441Z,11.76
2017-10-07T06:41:18.277Z,11.76
2017-10-07T06:42:27.105Z,11.8
2017-10-07T06:43:35.942Z,11.78
2017-10-07T06:44:44.772Z,11.76
2017-10-07T06:45:53.607Z,11.78
2017-10-07T06:47:02.436Z,11.76
2017-10-07T06:48:11.273Z,11.76
2017-10-07T06:49:20.104Z,11.75
2017-10-07T06:50:28.941Z,11.67
2017-10-07T06:51:37.773Z,11.73
2017-10-07T06:52:46.604Z,11.69
2017-10-07T06:53:55.437Z,11.76
2017-10-07T06:55:04.273Z,11.65
2017-10-07T06:56:13.108Z,11.62
2017-10-07T06:57:21.942Z,11.65
2017-10-07T06:58:30.770Z,11.67
2017-10-07T06:59:39.602Z,11.7
2017-10-07T07:00:48.434Z,11.73
2017-10-07T07:01:57.588Z,11.61
2017-10-07T07:03:06.420Z,11.73
2017-10-07T07:04:15.244Z,11.62
2017-10-07T07:05:24.079Z,11.65
2017-10-07T07:06:33.234Z,11.7
2017-10-07T07:07:42.070Z,11.76
2017-10-07T07:08:50.902Z,11.65
2017-10-07T07:09:59.732Z,11.83
2017-10-07T07:11:08.568Z,11.7
2017-10-07T07:12:17.398Z,11.78
2017-10-07T07:13:26.241Z,11.69
2017-10-07T07:14:35.073Z,11.79
2017-10-07T07:15:43.907Z,11.83
2017-10-07T07:16:52.738Z,11.83
2017-10-07T07:18:01.571Z,11.83
2017-10-07T07:19:10.404Z,11.78
2017-10-07T07:20:19.238Z,11.7
2017-10-07T07:21:28.388Z,11.76
2017-10-07T07:22:37.218Z,11.69
2017-10-07T07:23:46.050Z,11.72
2017-10-07T07:24:54.888Z,11.78
2017-10-07T07:26:03.721Z,11.75
2017-10-07T07:27:12.555Z,11.75
2017-10-07T07:28:21.384Z,11.7
2017-10-07T07:29:30.212Z,11.78
2017-10-07T07:30:39.043Z,11.78
2017-10-07T07:31:47.878Z,11.73
2017-10-07T07:32:56.708Z,11.62
2017-10-07T07:34:05.862Z,11.72
2017-10-07T07:35:14.699Z,11.7
2017-10-07T07:36:23.854Z,11.7
2017-10-07T07:37:32.687Z,11.69
2017-10-07T07:38:41.524Z,11.64
2017-10-07T07:39:50.349Z,11.72
2017-10-07T07:40:59.185Z,11.69
2017-10-07T07:42:08.013Z,11.78
2017-10-07T07:43:16.851Z,11.73
2017-10-07T07:44:25.685Z,11.78
2017-10-07T07:45:34.526Z,11.83
2017-10-07T07:46:43.353Z,11.82
2017-10-07T07:47:52.184Z,11.86
2017-10-07T07:49:01.021Z,11.91
2017-10-07T07:50:09.851Z,12.01
2017-10-07T07:51:18.685Z,11.95
2017-10-07T07:52:27.521Z,12.01
2017-10-07T07:53:36.347Z,11.94
2017-10-07T07:54:45.177Z,11.99
2017-10-07T07:55:54.011Z,11.96
2017-10-07T07:57:02.843Z,11.99
2017-10-07T07:58:11.680Z,12.05
2017-10-07T07:59:20.509Z,12.07
2017-10-07T08:00:29.341Z,11.96
2017-10-07T08:01:38.172Z,12.01
2017-10-07T08:02:47.010Z,11.96
2017-10-07T08:03:55.839Z,11.98
2017-10-07T08:05:05.000Z,11.99
2017-10-07T08:06:13.836Z,11.96
2017-10-07T08:07:22.669Z,12.1
2017-10-07T08:08:31.503Z,12.14
2017-10-07T08:09:40.337Z,12.12
2017-10-07T08:10:49.171Z,12.16
2017-10-07T08:11:58.006Z,12.17
2017-10-07T08:13:06.837Z,12.2
2017-10-07T08:14:15.668Z,12.29
2017-10-07T08:15:24.500Z,12.28
2017-10-07T08:16:33.333Z,12.38
2017-10-07T08:17:42.167Z,12.32
2017-10-07T08:18:51.002Z,12.41
2017-10-07T08:19:59.834Z,12.39
2017-10-07T08:21:08.668Z,12.38
2017-10-07T08:22:17.498Z,12.38
2017-10-07T08:23:26.327Z,12.34
2017-10-07T08:24:35.155Z,12.34
2017-10-07T08:25:43.987Z,12.32
2017-10-07T08:26:52.825Z,12.34
2017-10-07T08:28:01.659Z,12.32
2017-10-07T08:29:10.489Z,12.32
2017-10-07T08:30:19.325Z,12.27
2017-10-07T08:31:28.158Z,12.27
2017-10-07T08:32:37.314Z,12.34
2017-10-07T08:33:46.470Z,12.29
2017-10-07T08:34:55.305Z,12.37
2017-10-07T08:36:04.139Z,12.41
2017-10-07T08:37:12.966Z,12.32
2017-10-07T08:38:21.806Z,12.35
2017-10-07T08:39:30.637Z,12.34
2017-10-07T08:40:39.474Z,12.35
2017-10-07T08:41:48.627Z,12.32
2017-10-07T08:42:57.452Z,12.38
2017-10-07T08:44:06.288Z,12.31
2017-10-07T08:45:15.121Z,12.31
2017-10-07T08:46:23.955Z,12.28
2017-10-07T08:47:32.788Z,12.37
2017-10-07T08:48:41.620Z,12.35
2017-10-07T08:49:50.449Z,12.34
2017-10-07T08:50:59.284Z,12.35
2017-10-07T08:52:08.117Z,12.38
2017-10-07T08:53:16.954Z,12.41
2017-10-07T08:54:25.786Z,12.38
2017-10-07T08:55:34.622Z,12.49
2017-10-07T08:56:43.449Z,12.52
2017-10-07T08:57:52.282Z,12.59
2017-10-07T08:59:01.115Z,12.53
2017-10-07T09:00:09.950Z,12.7
2017-10-07T09:01:18.786Z,12.67
2017-10-07T09:02:27.622Z,12.85
2017-10-07T09:03:36.455Z,12.87
2017-10-07T09:04:45.287Z,12.78
2017-10-07T09:05:54.120Z,12.92
2017-10-07T09:07:02.953Z,12.85
2017-10-07T09:08:11.780Z,12.95
2017-10-07T09:09:20.620Z,12.87
2017-10-07T09:10:29.772Z,12.83
2017-10-07T09:11:38.610Z,12.89
2017-10-07T09:12:47.443Z,12.85
2017-10-07T09:13:56.278Z,12.87
2017-10-07T09:15:05.107Z,12.89
2017-10-07T09:16:13.937Z,12.87
2017-10-07T09:17:22.770Z,12.85
2017-10-07T09:18:31.605Z,12.87
2017-10-07T09:19:40.440Z,12.97
2017-10-07T09:20:49.268Z,13.04
2017-10-07T09:21:58.101Z,13.14
2017-10-07T09:23:06.937Z,13.08
2017-10-07T09:24:15.773Z,13.17
2017-10-07T09:25:24.607Z,13.2
2017-10-07T09:26:33.439Z,13.2
2017-10-07T09:27:42.272Z,13.23
2017-10-07T09:28:51.107Z,13.22
2017-10-07T09:29:59.950Z,13.33
2017-10-07T09:31:08.775Z,13.44
2017-10-07T09:32:17.609Z,13.39
2017-10-07T09:33:26.446Z,13.38
2017-10-07T09:34:35.279Z,13.41
2017-10-07T09:35:44.114Z,13.41
2017-10-07T09:36:52.946Z,13.36
2017-10-07T09:38:01.786Z,13.45
2017-10-07T09:39:10.616Z,13.33
2017-10-07T09:40:19.457Z,13.42
2017-10-07T09:41:28.287Z,13.39
2017-10-07T09:42:37.122Z,13.42
2017-10-07T09:43:45.954Z,13.39
2017-10-07T09:44:54.786Z,13.42
2017-10-07T09:46:03.622Z,13.42
2017-10-07T09:47:12.456Z,13.46
2017-10-07T09:48:21.290Z,13.59
2017-10-07T09:49:30.120Z,13.52
2017-10-07T09:50:38.961Z,13.63
2017-10-07T09:51:47.790Z,13.66
2017-10-07T09:52:56.625Z,13.63
2017-10-07T09:54:05.455Z,13.6
2017-10-07T09:55:14.290Z,13.69
2017-10-07T09:56:23.127Z,13.6
2017-10-07T09:57:31.961Z,13.64
2017-10-07T09:58:40.795Z,13.57
2017-10-07T09:59:49.627Z,13.6
2017-10-07T10:00:58.786Z,13.55
2017-10-07T10:02:07.618Z,13.63
2017-10-07T10:03:16.452Z,13.71
2017-10-07T10:04:25.284Z,13.7
2017-10-07T10:05:34.766Z,13.71
2017-10-07T10:06:43.604Z,13.78
2017-10-07T10:07:52.440Z,13.78
2017-10-07T10:09:01.273Z,13.73
2017-10-07T10:10:10.107Z,13.7
2017-10-07T10:11:18.945Z,13.6
2017-10-07T10:12:27.780Z,13.62
2017-10-07T10:13:36.610Z,13.6
2017-10-07T10:14:45.448Z,13.57
2017-10-07T10:15:54.285Z,13.63
2017-10-07T10:17:03.118Z,13.57
2017-10-07T10:18:11.953Z,13.63
2017-10-07T10:19:20.797Z,13.79
2017-10-07T10:20:29.635Z,13.77
2017-10-07T10:21:39.109Z,13.85
2017-10-07T10:22:47.944Z,13.85
2017-10-07T10:23:56.778Z,13.79
2017-10-07T10:25:05.617Z,13.87
2017-10-07T10:26:14.456Z,13.91
2017-10-07T10:27:23.287Z,13.87
2017-10-07T10:28:32.118Z,13.73
2017-10-07T10:29:40.951Z,13.78
2017-10-07T10:30:49.781Z,13.69
2017-10-07T10:31:58.618Z,13.59
2017-10-07T10:33:07.453Z,13.63
2017-10-07T10:34:16.282Z,13.66
2017-10-07T10:35:25.120Z,13.63
2017-10-07T10:36:33.956Z,13.71
2017-10-07T10:37:42.791Z,13.63
2017-10-07T10:38:51.627Z,13.67
2017-10-07T10:40:00.784Z,13.7
2017-10-07T10:41:09.622Z,13.54
2017-10-07T10:42:18.452Z,13.6
2017-10-07T10:43:27.287Z,13.54
2017-10-07T10:44:36.122Z,13.42
2017-10-07T10:45:44.955Z,13.48
2017-10-07T10:46:53.790Z,13.39
2017-10-07T10:48:02.628Z,13.41
2017-10-07T10:49:11.465Z,13.25
2017-10-07T10:50:20.302Z,13.25
2017-10-07T10:51:29.138Z,13.23
2017-10-07T10:52:37.972Z,13.26
2017-10-07T10:53:46.803Z,13.26
2017-10-07T10:54:55.638Z,13.33
2017-10-07T10:56:04.473Z,13.33
2017-10-07T10:57:13.308Z,13.44
2017-10-07T10:58:22.142Z,13.3
2017-10-07T10:59:30.970Z,13.25
2017-10-07T11:00:39.805Z,13.28
2017-10-07T11:01:48.641Z,13.23
2017-10-07T11:02:57.472Z,13.26
2017-10-07T11:04:06.631Z,13.25
2017-10-07T11:05:15.460Z,13.41
2017-10-07T11:06:24.294Z,13.26
2017-10-07T11:07:33.129Z,13.29
2017-10-07T11:08:41.963Z,13.22
2017-10-07T11:09:50.798Z,13.2
2017-10-07T11:10:59.632Z,13.22
2017-10-07T11:12:08.459Z,13.19
2017-10-07T11:13:17.293Z,13.03
2017-10-07T11:14:26.126Z,13.04
2017-10-07T11:15:34.960Z,13.01
2017-10-07T11:16:43.799Z,12.97
2017-10-07T11:17:52.627Z,12.92
2017-10-07T11:19:01.460Z,12.89
2017-10-07T11:20:10.298Z,12.85
2017-10-07T11:21:19.128Z,12.87
2017-10-07T11:22:27.962Z,12.87
2017-10-07T11:23:36.798Z,12.89
2017-10-07T11:24:45.627Z,12.92
2017-10-07T11:25:54.458Z,13
2017-10-07T11:27:03.296Z,12.95
2017-10-07T11:28:12.127Z,13.07
2017-10-07T11:29:20.959Z,13.03
2017-10-07T11:30:29.788Z,13.05
2017-10-07T11:31:38.624Z,13.04
2017-10-07T11:32:47.456Z,12.97
2017-10-07T11:33:56.287Z,13.04
2017-10-07T11:35:05.124Z,12.97
2017-10-07T11:36:13.957Z,13.01
2017-10-07T11:37:22.794Z,12.96
2017-10-07T11:38:31.627Z,13.01
2017-10-07T11:39:40.456Z,13.04
2017-10-07T11:40:49.291Z,13.1
2017-10-07T11:41:58.122Z,13.11
2017-10-07T11:43:06.959Z,13.23
2017-10-07T11:44:15.790Z,13.14
2017-10-07T11:45:24.628Z,13.19
2017-10-07T11:46:33.459Z,13.19
2017-10-07T11:47:42.294Z,13.17
2017-10-07T11:48:51.130Z,13.2
2017-10-07T11:49:59.961Z,13.28
2017-10-07T11:51:08.795Z,13.39
2017-10-07T11:52:17.626Z,13.28
2017-10-07T11:53:26.460Z,13.29
2017-10-07T11:54:35.293Z,13.26
2017-10-07T11:55:44.131Z,13.28
2017-10-07T11:56:52.958Z,13.23
2017-10-07T11:58:01.800Z,13.26
2017-10-07T11:59:10.629Z,13.28
2017-10-07T12:00:19.465Z,13.48
2017-10-07T12:01:28.301Z,13.41
2017-10-07T12:02:37.135Z,13.33
2017-10-07T12:03:45.967Z,13.42
2017-10-07T12:04:54.800Z,13.39
2017-10-07T12:06:03.643Z,13.39
2017-10-07T12:07:12.474Z,13.44
2017-10-07T12:08:21.629Z,13.39
2017-10-07T12:09:30.466Z,13.51
2017-10-07T12:10:39.298Z,13.52
2017-10-07T12:11:48.135Z,13.62
2017-10-07T12:12:56.967Z,13.6
2017-10-07T12:14:05.804Z,13.59
2017-10-07T12:15:14.632Z,13.59
2017-10-07T12:16:23.467Z,13.67
2017-10-07T12:17:32.300Z,13.78
2017-10-07T12:18:41.135Z,13.78
2017-10-07T12:19:49.969Z,13.82
2017-10-07T12:20:58.800Z,13.96
2017-10-07T12:22:07.636Z,13.96
2017-10-07T12:23:16.470Z,13.92
2017-10-07T12:24:25.305Z,13.96
2017-10-07T12:25:34.134Z,14
2017-10-07T12:26:42.976Z,13.99
2017-10-07T12:27:51.809Z,14
2017-10-07T12:29:00.649Z,13.88
2017-10-07T12:30:09.489Z,14
2017-10-07T12:31:18.322Z,14.03
2017-10-07T12:32:27.152Z,14
2017-10-07T12:33:35.988Z,14.07
2017-10-07T12:34:44.822Z,14.06
2017-10-07T12:35:53.661Z,14.07
2017-10-07T12:37:02.492Z,14.07
2017-10-07T12:38:11.331Z,13.97
2017-10-07T12:39:20.162Z,13.92
2017-10-07T12:40:29.004Z,13.85
2017-10-07T12:41:37.837Z,13.91
2017-10-07T12:42:46.674Z,13.92
2017-10-07T12:43:55.505Z,13.88
2017-10-07T12:45:04.338Z,13.78
2017-10-07T12:46:13.174Z,13.78
2017-10-07T12:47:22.006Z,13.64
2017-10-07T12:48:30.846Z,13.7
2017-10-07T12:49:39.675Z,13.59
2017-10-07T12:50:48.505Z,13.48
2017-10-07T12:51:57.344Z,13.48
2017-10-07T12:53:06.175Z,13.39
2017-10-07T12:54:15.007Z,13.42
2017-10-07T12:55:23.841Z,13.38
2017-10-07T12:56:32.673Z,13.26
2017-10-07T12:57:41.504Z,13.23
2017-10-07T12:58:50.340Z,13.25
2017-10-07T12:59:59.512Z,13.29
2017-10-07T13:01:08.342Z,13.19
2017-10-07T13:02:17.178Z,13.22
2017-10-07T13:03:26.016Z,13.19
2017-10-07T13:04:34.846Z,13.19
2017-10-07T13:05:43.681Z,13.15
2017-10-07T13:06:52.512Z,13.15
2017-10-07T13:08:01.350Z,13.19
2017-10-07T13:09:10.179Z,13.22
2017-10-07T13:10:19.016Z,13.19
2017-10-07T13:11:27.847Z,13.12
2017-10-07T13:12:36.685Z,13.17
2017-10-07T13:13:45.516Z,13.14
2017-10-07T13:14:54.348Z,13.11
2017-10-07T13:16:03.187Z,13.14
2017-10-07T13:17:12.017Z,13.2
2017-10-07T13:18:20.854Z,13.1
2017-10-07T13:19:29.681Z,13.15
2017-10-07T13:20:38.519Z,13.1
2017-10-07T13:21:47.355Z,13.05
2017-10-07T13:22:56.186Z,13.07
2017-10-07T13:24:05.345Z,13.05
2017-10-07T13:25:14.187Z,13.04
2017-10-07T13:26:23.021Z,13.04
2017-10-07T13:27:31.855Z,13.07
2017-10-07T13:28:40.687Z,12.96
2017-10-07T13:29:49.515Z,12.97
2017-10-07T13:30:58.351Z,12.89
2017-10-07T13:32:07.513Z,12.89
2017-10-07T13:33:16.340Z,12.72
2017-10-07T13:34:25.178Z,12.7
2017-10-07T13:35:34.007Z,12.71
2017-10-07T13:36:42.842Z,12.68
2017-10-07T13:37:51.679Z,12.71
2017-10-07T13:39:00.515Z,12.74
2017-10-07T13:40:09.347Z,12.78
2017-10-07T13:41:18.182Z,12.82
2017-10-07T13:42:27.017Z,12.71
2017-10-07T13:43:35.845Z,12.72
2017-10-07T13:44:44.683Z,12.65
2017-10-07T13:45:53.519Z,12.64
2017-10-07T13:47:02.355Z,12.53
2017-10-07T13:48:11.194Z,12.6
2017-10-07T13:49:20.026Z,12.52
2017-10-07T13:50:28.856Z,12.5
2017-10-07T13:51:37.691Z,12.52
2017-10-07T13:52:46.530Z,12.5
2017-10-07T13:53:55.685Z,12.49
2017-10-07T13:55:04.521Z,12.42
2017-10-07T13:56:13.354Z,12.46
2017-10-07T13:57:22.189Z,12.46
2017-10-07T13:58:31.026Z,12.5
2017-10-07T13:59:39.861Z,12.5
2017-10-07T14:00:48.694Z,12.5
2017-10-07T14:01:57.523Z,12.46
2017-10-07T14:03:06.360Z,12.41
2017-10-07T14:04:15.192Z,12.38
2017-10-07T14:05:24.030Z,12.46
2017-10-07T14:06:32.864Z,12.35
2017-10-07T14:07:41.698Z,12.41
2017-10-07T14:08:50.523Z,12.38
2017-10-07T14:09:59.359Z,12.42
2017-10-07T14:11:08.190Z,12.32
2017-10-07T14:12:17.028Z,12.32
2017-10-07T14:13:26.184Z,12.38
2017-10-07T14:14:35.012Z,12.38
2017-10-07T14:15:43.846Z,12.39
2017-10-07T14:16:52.680Z,12.38
2017-10-07T14:18:01.515Z,12.41
2017-10-07T14:19:10.345Z,12.39
2017-10-07T14:20:19.182Z,12.31
2017-10-07T14:21:28.016Z,12.37
2017-10-07T14:22:36.852Z,12.32
2017-10-07T14:23:45.688Z,12.31
2017-10-07T14:24:54.536Z,12.28
2017-10-07T14:26:03.353Z,12.23
2017-10-07T14:27:12.187Z,12.31
2017-10-07T14:28:21.018Z,12.24
2017-10-07T14:29:29.853Z,12.35
2017-10-07T14:30:38.682Z,12.32
2017-10-07T14:31:47.520Z,12.31
2017-10-07T14:32:56.350Z,12.21
2017-10-07T14:34:05.187Z,12.24
2017-10-07T14:35:14.019Z,12.24
2017-10-07T14:36:22.846Z,12.34
2017-10-07T14:37:31.679Z,12.19
2017-10-07T14:38:40.510Z,12.13
2017-10-07T14:39:49.344Z,11.94
2017-10-07T14:40:58.179Z,11.96
2017-10-07T14:42:07.015Z,11.94
2017-10-07T14:43:15.853Z,11.91
2017-10-07T14:44:24.684Z,11.91
2017-10-07T14:45:33.520Z,11.94
2017-10-07T14:46:42.349Z,11.95
2017-10-07T14:47:51.183Z,11.96
2017-10-07T14:49:00.017Z,11.95
2017-10-07T14:50:08.849Z,12.05